Main page
METAR-TAF:

METAR-TAF

Airports :

Zaragoza Airport

Zaragoza, Spain

latitude: 41-40N, longitude: 001-01W, elevation: 263 m

Current weather observation

The report was made 38 minutes ago, at 23:00 UTC
Wind 7 kt from the West, varying between West and Northwest
Temperature 11°C
Humidity 87%
Pressure 1024 hPa
Visibility 10 km or more
Few clouds at a height of 6000 ft

METAR: LEZG 282300Z 28007KT 260V320 9999 FEW060 11/09 Q1024

Time: 00:38 (23:38 UTC)

Forecast

The report was made 38 minutes ago, at 23:00 UTC
Forecast valid from 29 at 00 UTC to 29 at 24 UTC
Wind 9 kt from the West
Visibility 10 km or more
no clouds below 1500 m and no cumulonimbus
Becoming
from 29 at 14 UTC to 29 at 16 UTC
Wind 4 kt from variable directions

TAF: LEZG 282300Z 2900/2924 27009KT CAVOK TX21/2913Z TN08/2905Z BECMG 2914/2916 VRB04KT

Weather observations and forecasts of more than 4000 airports (METAR and TAF reports).

The available stations are represented by yellow and red dots on the map.

Hover mouse over dot to see the name of the station.

Then click to see weather observations and forecasts.

To change the map : click on the green buttons with a black cross to zoom in, on the green button with a dash to zoom out, or on the green arrows for adjacent maps.


METAR-TAF: